Time;durP1;ratioP1;P1;durP2;ratioP2;P2;SDS_P1;SDS_P2;PMS_P1;PMS_P2;Temp;Humidity;BMP_temperature;BMP_pressure;BME280_temperature;BME280_humidity;BME280_pressure;Samples;Min_cycle;Max_cycle;Signal;HPM_P1;HPM_P2
2022/07/11 00:02:04;;;;;;;6.47;2.40;;;12.60;99.90;;;;;;5030031;28;20464;-81
2022/07/11 00:04:31;;;;;;;5.82;2.10;;;12.60;99.90;;;;;;5030233;28;20386;-81
2022/07/11 00:06:58;;;;;;;7.80;2.22;;;12.50;99.90;;;;;;5030771;28;20788;-82
2022/07/11 00:09:23;;;;;;;6.68;2.30;;;12.50;99.90;;;;;;5031189;28;20381;-81
2022/07/11 00:11:49;;;;;;;6.68;2.55;;;12.40;99.90;;;;;;5029750;28;20389;-81
2022/07/11 00:14:16;;;;;;;7.03;2.23;;;12.40;99.90;;;;;;5031284;28;20400;-81
2022/07/11 00:16:41;;;;;;;5.55;2.10;;;12.40;99.90;;;;;;5030167;28;20424;-81
2022/07/11 00:19:07;;;;;;;5.07;2.22;;;12.40;99.90;;;;;;5031120;28;20859;-80
2022/07/11 00:21:34;;;;;;;6.00;2.30;;;12.30;99.90;;;;;;5030310;28;20365;-81
2022/07/11 00:24:00;;;;;;;6.87;2.73;;;12.30;99.90;;;;;;5031029;28;20447;-80
2022/07/11 00:26:26;;;;;;;7.03;2.00;;;12.20;99.90;;;;;;5030865;28;20370;-81
2022/07/11 00:28:51;;;;;;;7.55;2.30;;;12.20;99.90;;;;;;5031028;28;20460;-81
2022/07/11 00:31:17;;;;;;;9.02;2.40;;;12.10;99.90;;;;;;5030899;28;20389;-80
2022/07/11 00:33:43;;;;;;;5.73;2.13;;;12.10;99.90;;;;;;5029847;28;20385;-81
2022/07/11 00:36:08;;;;;;;6.07;2.22;;;12.00;99.90;;;;;;5030479;28;20852;-81
2022/07/11 00:38:34;;;;;;;6.23;2.20;;;11.90;99.90;;;;;;5029647;28;20378;-80
2022/07/11 00:41:00;;;;;;;6.47;2.27;;;11.90;99.90;;;;;;5029073;28;20386;-80
2022/07/11 00:43:30;;;;;;;6.77;2.10;;;11.80;99.90;;;;;;5029494;28;20828;-81
2022/07/11 00:45:56;;;;;;;5.88;1.98;;;11.70;99.90;;;;;;5029653;28;20403;-81
2022/07/11 00:48:22;;;;;;;7.90;2.47;;;11.70;99.90;;;;;;5030924;28;20427;-81
2022/07/11 00:50:47;;;;;;;7.25;2.20;;;11.70;99.90;;;;;;5030106;28;20868;-82
2022/07/11 00:53:13;;;;;;;6.63;2.50;;;11.60;99.90;;;;;;5030291;28;20397;-82
2022/07/11 00:55:40;;;;;;;6.63;2.40;;;11.50;99.90;;;;;;5029251;28;20408;-80
2022/07/11 00:58:06;;;;;;;7.50;2.47;;;11.50;99.90;;;;;;5030368;28;20835;-83
2022/07/11 01:00:33;;;;;;;9.75;2.95;;;11.40;99.90;;;;;;5028617;28;20389;-81
2022/07/11 01:02:58;;;;;;;8.45;3.08;;;11.40;99.90;;;;;;5029677;28;20377;-81
2022/07/11 01:05:24;;;;;;;6.53;2.40;;;11.30;99.90;;;;;;5029271;28;20397;-82
2022/07/11 01:07:50;;;;;;;7.33;2.60;;;11.30;99.90;;;;;;5028384;28;20872;-82
2022/07/11 01:10:15;;;;;;;6.00;2.30;;;11.20;99.90;;;;;;5029151;28;20439;-80
2022/07/11 01:12:42;;;;;;;5.38;2.33;;;11.20;99.90;;;;;;5029484;28;20374;-82
2022/07/11 01:15:07;;;;;;;6.20;2.08;;;11.00;99.90;;;;;;5030085;28;20970;-82
2022/07/11 01:17:33;;;;;;;5.53;2.33;;;11.10;99.90;;;;;;5029945;28;20496;-82
2022/07/11 01:20:00;;;;;;;7.50;2.47;;;11.00;99.90;;;;;;5030112;28;20728;-82
2022/07/11 01:22:28;;;;;;;5.90;2.58;;;11.00;99.90;;;;;;5028099;28;20852;-82
2022/07/11 01:24:55;;;;;;;7.40;2.58;;;11.00;99.90;;;;;;5030001;28;20430;-82
2022/07/11 01:27:22;;;;;;;6.07;2.50;;;11.00;99.90;;;;;;5029945;28;20405;-82
2022/07/11 01:29:48;;;;;;;6.10;2.40;;;11.00;99.90;;;;;;5029749;28;20390;-82
2022/07/11 01:32:13;;;;;;;6.45;2.60;;;11.00;99.90;;;;;;5029068;28;20404;-82
2022/07/11 01:34:39;;;;;;;5.20;2.30;;;10.90;99.90;;;;;;5030330;28;20430;-81
2022/07/11 01:37:05;;;;;;;8.77;3.20;;;10.90;99.90;;;;;;5028950;28;20402;-82
2022/07/11 01:39:30;;;;;;;6.43;2.60;;;10.90;99.90;;;;;;5029998;28;20443;-82
2022/07/11 01:41:57;;;;;;;8.15;2.83;;;10.90;99.90;;;;;;5029435;28;20381;-82
2022/07/11 01:44:23;;;;;;;8.02;2.67;;;10.90;99.90;;;;;;5030489;28;20377;-82
2022/07/11 01:46:49;;;;;;;7.63;2.90;;;10.90;99.90;;;;;;5028519;28;20444;-82
2022/07/11 01:49:15;;;;;;;8.40;2.80;;;10.90;99.90;;;;;;5029885;28;20384;-82
2022/07/11 01:51:41;;;;;;;6.27;2.30;;;10.90;99.90;;;;;;5029315;28;20410;-82
2022/07/11 01:54:07;;;;;;;6.28;2.30;;;10.80;99.90;;;;;;5029374;28;20394;-82
2022/07/11 01:56:33;;;;;;;6.73;2.57;;;10.80;99.90;;;;;;5028111;28;20388;-82
2022/07/11 01:58:59;;;;;;;7.80;2.40;;;10.70;99.90;;;;;;5029498;28;20466;-82
2022/07/11 02:01:26;;;;;;;7.82;2.88;;;10.70;99.90;;;;;;5028973;28;20385;-82
2022/07/11 02:03:52;;;;;;;8.15;2.70;;;10.60;99.90;;;;;;5029483;28;20381;-82
2022/07/11 02:06:18;;;;;;;6.45;2.65;;;10.60;99.90;;;;;;5029534;28;20931;-82
2022/07/11 02:08:43;;;;;;;6.43;2.43;;;10.50;99.90;;;;;;5028949;28;20393;-82
2022/07/11 02:11:09;;;;;;;5.67;2.73;;;10.50;99.90;;;;;;5029076;28;20401;-82
2022/07/11 02:13:35;;;;;;;8.45;2.83;;;10.50;99.90;;;;;;5027511;28;20385;-82
2022/07/11 02:16:02;;;;;;;6.03;2.97;;;10.40;99.90;;;;;;5027740;28;20436;-82
2022/07/11 02:18:28;;;;;;;6.38;3.20;;;10.40;99.90;;;;;;5029292;28;20891;-82
2022/07/11 02:20:54;;;;;;;5.85;2.55;;;10.30;99.90;;;;;;5029000;28;20400;-82
2022/07/11 02:23:20;;;;;;;8.10;2.75;;;10.30;99.90;;;;;;5027563;28;21223;-82
2022/07/11 02:25:47;;;;;;;6.65;3.00;;;10.30;99.90;;;;;;5033068;28;20445;-82
2022/07/11 02:28:13;;;;;;;6.47;2.60;;;10.20;99.90;;;;;;5032452;28;20420;-82
2022/07/11 02:30:41;;;;;;;7.15;2.78;;;10.10;99.90;;;;;;5031362;28;20460;-82
2022/07/11 02:33:07;;;;;;;5.18;2.97;;;10.00;99.90;;;;;;5031894;28;20843;-82
2022/07/11 02:35:34;;;;;;;9.38;3.25;;;10.00;99.90;;;;;;5032855;28;20441;-82
2022/07/11 02:38:00;;;;;;;7.25;2.95;;;10.10;99.90;;;;;;5031605;28;20906;-82
2022/07/11 02:40:29;;;;;;;10.88;4.07;;;10.00;99.90;;;;;;5032704;28;20374;-82
2022/07/11 02:42:55;;;;;;;9.32;3.33;;;10.00;99.90;;;;;;5031691;28;20401;-82
2022/07/11 02:45:21;;;;;;;7.88;3.35;;;9.90;99.90;;;;;;5031940;28;20389;-82
2022/07/11 02:47:46;;;;;;;6.13;2.88;;;9.80;99.90;;;;;;5032763;28;20883;-82
2022/07/11 02:50:13;;;;;;;7.57;3.20;;;9.80;99.90;;;;;;5032719;28;20384;-82
2022/07/11 02:52:40;;;;;;;6.53;3.15;;;9.80;99.90;;;;;;5032625;28;20376;-82
2022/07/11 02:55:08;;;;;;;7.67;3.70;;;9.80;99.90;;;;;;5032613;28;20504;-81
2022/07/11 02:57:34;;;;;;;8.02;3.80;;;9.80;99.90;;;;;;5031685;28;20855;-82
2022/07/11 03:00:02;;;;;;;9.15;3.50;;;9.80;99.90;;;;;;5032810;28;20902;-81
2022/07/11 03:02:27;;;;;;;7.68;3.35;;;9.80;99.90;;;;;;5031137;28;20381;-82
2022/07/11 03:04:53;;;;;;;7.60;3.60;;;9.80;99.90;;;;;;5032672;28;20377;-82
2022/07/11 03:07:19;;;;;;;8.70;3.77;;;9.80;99.90;;;;;;5031470;28;20377;-82
2022/07/11 03:09:44;;;;;;;8.13;3.60;;;10.00;99.90;;;;;;5025194;28;20850;-83
2022/07/11 03:12:10;;;;;;;8.82;3.92;;;10.00;99.90;;;;;;5019482;28;20379;-82
2022/07/11 03:14:35;;;;;;;8.23;4.07;;;10.00;99.90;;;;;;5011325;28;20410;-82
2022/07/11 03:17:01;;;;;;;7.25;3.40;;;10.20;99.90;;;;;;5013108;28;20884;-82
2022/07/11 03:19:27;;;;;;;11.15;4.10;;;10.20;99.90;;;;;;5012986;28;20410;-82
2022/07/11 03:21:52;;;;;;;7.43;3.43;;;10.20;99.90;;;;;;5012790;28;20390;-82
2022/07/11 03:24:18;;;;;;;8.07;3.78;;;10.20;99.90;;;;;;5010779;28;20391;-82
2022/07/11 03:26:44;;;;;;;9.93;4.20;;;10.10;99.90;;;;;;5011975;28;20386;-82
2022/07/11 03:29:09;;;;;;;7.90;3.50;;;10.20;99.90;;;;;;5012398;28;20379;-82
2022/07/11 03:31:35;;;;;;;6.90;3.15;;;10.20;99.90;;;;;;5010953;28;20395;-82
2022/07/11 03:34:01;;;;;;;9.20;3.50;;;10.20;99.90;;;;;;5012408;28;20865;-82
2022/07/11 03:36:28;;;;;;;9.15;3.42;;;10.30;99.90;;;;;;5011633;28;20549;-82
2022/07/11 03:38:53;;;;;;;9.00;3.50;;;10.30;99.90;;;;;;5012317;28;20433;-82
2022/07/11 03:41:19;;;;;;;8.27;3.83;;;10.30;99.90;;;;;;5011798;28;20375;-82
2022/07/11 03:43:45;;;;;;;7.80;3.63;;;10.30;99.90;;;;;;5012395;28;20404;-82
2022/07/11 03:46:10;;;;;;;7.70;3.33;;;10.40;99.90;;;;;;5012254;28;20383;-82
2022/07/11 03:48:36;;;;;;;8.73;3.60;;;10.40;99.90;;;;;;5011992;28;20379;-82
2022/07/11 03:51:01;;;;;;;8.77;3.67;;;10.40;99.90;;;;;;5011812;28;20382;-82
2022/07/11 03:53:27;;;;;;;8.53;3.90;;;10.40;99.90;;;;;;5024286;28;20860;-82
2022/07/11 03:55:53;;;;;;;9.43;3.97;;;10.40;99.90;;;;;;5031344;28;20771;-82
2022/07/11 03:58:18;;;;;;;7.07;3.35;;;10.40;99.90;;;;;;5031743;28;20405;-82
2022/07/11 04:00:44;;;;;;;7.30;3.47;;;10.50;99.90;;;;;;5029740;28;20440;-82
2022/07/11 04:03:10;;;;;;;8.43;3.73;;;10.50;99.90;;;;;;5031836;28;20383;-82
2022/07/11 04:05:36;;;;;;;6.00;3.25;;;10.60;99.90;;;;;;5031481;28;20420;-82
2022/07/11 04:08:02;;;;;;;9.52;3.70;;;10.70;99.90;;;;;;5031382;28;20369;-82
2022/07/11 04:10:28;;;;;;;8.80;3.45;;;10.70;99.90;;;;;;5030680;28;20386;-82
2022/07/11 04:12:54;;;;;;;9.40;3.60;;;10.80;99.90;;;;;;5031337;28;20740;-82
2022/07/11 04:15:19;;;;;;;6.95;3.00;;;10.90;99.90;;;;;;5031166;28;20409;-81
2022/07/11 04:17:45;;;;;;;8.00;3.08;;;10.90;99.90;;;;;;5031258;28;20905;-83
2022/07/11 04:20:11;;;;;;;9.37;3.33;;;11.00;99.90;;;;;;5031205;28;20366;-82
2022/07/11 04:22:37;;;;;;;5.40;2.78;;;11.10;99.90;;;;;;5030602;28;20936;-83
2022/07/11 04:25:03;;;;;;;7.60;3.07;;;11.20;99.90;;;;;;5030881;28;20382;-82
2022/07/11 04:27:29;;;;;;;6.77;2.87;;;11.40;99.90;;;;;;5031107;28;20374;-82
2022/07/11 04:29:55;;;;;;;8.93;3.47;;;11.50;99.90;;;;;;5031096;28;20382;-82
2022/07/11 04:32:20;;;;;;;9.90;3.13;;;11.50;99.90;;;;;;5030791;28;20370;-82
2022/07/11 04:34:46;;;;;;;7.88;3.33;;;11.50;99.90;;;;;;5030774;28;20894;-82
2022/07/11 04:37:12;;;;;;;7.13;3.17;;;11.60;99.90;;;;;;5030963;28;20915;-82
2022/07/11 04:39:37;;;;;;;8.67;3.13;;;11.80;99.90;;;;;;5031243;28;20398;-82
2022/07/11 04:42:06;;;;;;;10.30;3.25;;;11.90;99.90;;;;;;5029483;28;20389;-82
2022/07/11 04:44:32;;;;;;;7.60;3.45;;;12.10;99.90;;;;;;5031239;28;20888;-82
2022/07/11 04:46:58;;;;;;;7.45;3.38;;;12.30;99.90;;;;;;5028643;28;20751;-82
2022/07/11 04:49:23;;;;;;;7.45;3.03;;;12.50;99.90;;;;;;5030807;28;20374;-82
2022/07/11 04:51:49;;;;;;;9.27;2.90;;;12.80;99.90;;;;;;5028994;28;20370;-83
2022/07/11 04:54:15;;;;;;;6.97;2.50;;;13.30;99.90;;;;;;5030697;28;20385;-82
2022/07/11 04:56:41;;;;;;;5.47;2.47;;;13.50;99.90;;;;;;5029177;28;20495;-82
2022/07/11 04:59:07;;;;;;;7.05;2.45;;;13.60;99.90;;;;;;5029477;28;20413;-82
2022/07/11 05:01:34;;;;;;;6.82;2.80;;;13.80;99.90;;;;;;5030129;28;20440;-83
2022/07/11 05:04:00;;;;;;;6.75;2.50;;;14.10;99.90;;;;;;5029503;28;20451;-83
2022/07/11 05:06:26;;;;;;;7.95;2.85;;;14.30;99.90;;;;;;5030900;28;20883;-83
2022/07/11 05:08:52;;;;;;;6.68;2.67;;;14.60;99.90;;;;;;5028629;28;20389;-83
2022/07/11 05:11:17;;;;;;;7.57;2.57;;;14.60;99.90;;;;;;5028646;28;20405;-82
2022/07/11 05:13:43;;;;;;;7.93;2.90;;;14.90;99.90;;;;;;5030432;28;20808;-82
2022/07/11 05:16:08;;;;;;;8.07;2.90;;;14.80;99.90;;;;;;5030595;28;20433;-82
2022/07/11 05:18:34;;;;;;;7.28;2.78;;;14.90;99.90;;;;;;5029164;28;20432;-83
2022/07/11 05:21:00;;;;;;;7.20;2.67;;;14.90;99.90;;;;;;5028857;28;20377;-83
2022/07/11 05:23:25;;;;;;;7.43;2.50;;;15.00;99.90;;;;;;5030364;28;20466;-82
2022/07/11 05:25:52;;;;;;;7.43;2.72;;;15.30;99.90;;;;;;5029020;28;20448;-82
2022/07/11 05:28:17;;;;;;;8.63;2.47;;;15.60;99.90;;;;;;5029138;28;20386;-83
2022/07/11 05:30:43;;;;;;;6.93;2.27;;;15.60;99.90;;;;;;5029947;28;20377;-82
2022/07/11 05:33:08;;;;;;;9.00;2.67;;;15.50;99.90;;;;;;5030649;28;20468;-83
2022/07/11 05:35:34;;;;;;;8.30;2.80;;;15.70;99.90;;;;;;5028764;28;20406;-82
2022/07/11 05:38:00;;;;;;;6.27;2.60;;;15.70;99.90;;;;;;5029759;28;20394;-84
2022/07/11 05:40:25;;;;;;;9.98;2.50;;;15.60;99.90;;;;;;5029646;28;20400;-83
2022/07/11 05:42:51;;;;;;;10.03;2.50;;;15.60;99.90;;;;;;5028017;28;20676;-82
2022/07/11 05:45:17;;;;;;;7.85;2.83;;;15.50;99.90;;;;;;5029866;28;20385;-82
2022/07/11 05:47:42;;;;;;;5.17;1.97;;;15.50;99.90;;;;;;5029844;28;20366;-82
2022/07/11 05:50:08;;;;;;;7.60;3.03;;;15.50;99.90;;;;;;5033320;28;20382;-83
2022/07/11 05:52:34;;;;;;;7.70;2.65;;;15.40;99.90;;;;;;5037139;28;20393;-83
2022/07/11 05:54:59;;;;;;;7.67;2.77;;;15.40;99.90;;;;;;5028865;28;20416;-83
2022/07/11 05:57:25;;;;;;;6.18;2.40;;;15.40;99.90;;;;;;5030346;28;20396;-81
2022/07/11 05:59:51;;;;;;;6.63;2.57;;;15.50;99.90;;;;;;5030301;28;20370;-83
2022/07/11 06:02:18;;;;;;;6.23;2.60;;;15.60;99.90;;;;;;5029569;28;20389;-82
2022/07/11 06:04:44;;;;;;;7.20;2.42;;;15.60;99.90;;;;;;5028675;28;20377;-82
2022/07/11 06:07:10;;;;;;;6.47;2.45;;;15.70;99.90;;;;;;5028477;28;20385;-83
2022/07/11 06:09:36;;;;;;;7.83;2.43;;;15.70;99.90;;;;;;5029587;28;20370;-82
2022/07/11 06:12:02;;;;;;;7.05;2.70;;;15.70;99.90;;;;;;5027935;28;20460;-83
2022/07/11 06:14:28;;;;;;;7.05;2.70;;;15.80;99.90;;;;;;5029716;28;20847;-82
2022/07/11 06:16:54;;;;;;;8.45;2.42;;;15.70;99.90;;;;;;5028730;28;20457;-83
2022/07/11 06:19:20;;;;;;;7.97;2.80;;;15.80;99.90;;;;;;5029103;28;20414;-82
2022/07/11 06:21:45;;;;;;;10.40;2.65;;;15.90;99.90;;;;;;5028492;28;20406;-83
2022/07/11 06:24:11;;;;;;;7.82;2.25;;;16.20;99.90;;;;;;5029062;28;20385;-84
2022/07/11 06:26:37;;;;;;;6.47;2.00;;;16.60;99.90;;;;;;5027739;28;20377;-84
2022/07/11 06:29:03;;;;;;;8.17;2.50;;;17.00;99.90;;;;;;5028114;28;20463;-82
2022/07/11 06:31:29;;;;;;;7.80;2.25;;;17.40;99.90;;;;;;5028942;28;20735;-83
2022/07/11 06:33:55;;;;;;;7.95;2.22;;;17.60;99.90;;;;;;5029346;28;20523;-83
2022/07/11 06:36:22;;;;;;;8.20;2.80;;;17.80;99.90;;;;;;5028245;28;20460;-83
2022/07/11 06:38:49;;;;;;;8.05;2.25;;;18.20;99.90;;;;;;5027455;28;20401;-82
2022/07/11 06:41:15;;;;;;;8.30;2.20;;;18.40;99.90;;;;;;5028467;28;20452;-82
2022/07/11 06:43:41;;;;;;;5.75;2.20;;;18.60;99.90;;;;;;5026495;28;20488;-82
2022/07/11 06:46:06;;;;;;;7.20;2.05;;;18.80;99.90;;;;;;5027951;28;20498;-83
2022/07/11 06:48:32;;;;;;;8.77;2.27;;;19.00;99.90;;;;;;5027271;28;20382;-83
2022/07/11 06:50:58;;;;;;;7.28;2.42;;;19.40;99.90;;;;;;5026313;28;20389;-83
2022/07/11 06:53:23;;;;;;;8.10;2.57;;;19.60;99.90;;;;;;5027158;28;20941;-82
2022/07/11 06:55:49;;;;;;;6.68;2.20;;;19.90;99.90;;;;;;5027846;28;20407;-82
2022/07/11 06:58:31;;;;;;;7.90;2.43;;;20.20;99.90;;;;;;5026369;28;20620;-83
2022/07/11 07:01:03;;;;;;;6.90;2.33;;;20.30;99.90;;;;;;5026845;28;20443;-82
2022/07/11 07:03:29;;;;;;;6.95;2.30;;;20.40;99.90;;;;;;5026749;28;20405;-82
2022/07/11 07:05:56;;;;;;;6.35;2.30;;;20.40;99.90;;;;;;5008589;28;20947;-82
2022/07/11 07:08:26;;;;;;;7.18;2.28;;;20.60;99.90;;;;;;5008266;28;20380;-83
2022/07/11 07:10:52;;;;;;;5.85;2.20;;;20.60;99.90;;;;;;5009941;28;20761;-83
2022/07/11 07:13:20;;;;;;;7.53;2.17;;;20.80;99.90;;;;;;5020799;28;20377;-83
2022/07/11 07:15:47;;;;;;;8.40;2.55;;;21.20;99.90;;;;;;5016209;28;20415;-82
2022/07/11 07:18:13;;;;;;;10.47;2.23;;;21.50;99.90;;;;;;5018479;28;20393;-84
2022/07/11 07:20:39;;;;;;;7.70;2.40;;;21.30;99.90;;;;;;5029237;28;20381;-83
2022/07/11 07:23:04;;;;;;;9.63;2.70;;;20.80;99.90;;;;;;5024369;28;20389;-82
2022/07/11 07:25:30;;;;;;;6.35;2.60;;;20.80;99.90;;;;;;5017046;28;20389;-84
2022/07/11 07:27:56;;;;;;;7.32;2.20;;;21.00;99.90;;;;;;5020296;28;20442;-83
2022/07/11 07:30:21;;;;;;;7.33;2.53;;;21.20;99.90;;;;;;5030565;28;20381;-83
2022/07/11 07:32:47;;;;;;;8.32;2.40;;;21.50;99.90;;;;;;5030341;28;20468;-83
2022/07/11 07:35:13;;;;;;;8.37;2.30;;;21.90;99.90;;;;;;5019697;28;20468;-83
2022/07/11 07:37:38;;;;;;;7.32;2.05;;;21.90;99.90;;;;;;4960789;28;1835624;-82
2022/07/11 07:40:06;;;;;;;6.83;2.10;;;21.70;99.90;;;;;;5012637;28;20383;-82
2022/07/11 07:42:32;;;;;;;7.55;2.47;;;21.30;99.90;;;;;;5030182;28;20389;-84
2022/07/11 07:44:57;;;;;;;8.23;2.67;;;21.20;99.90;;;;;;5032666;28;20435;-83
2022/07/11 07:47:23;;;;;;;10.35;2.20;;;21.20;99.90;;;;;;5031524;28;20377;-82
2022/07/11 07:49:49;;;;;;;7.90;2.17;;;21.20;99.90;;;;;;5032057;28;20473;-82
2022/07/11 07:52:15;;;;;;;9.35;2.47;;;21.20;99.90;;;;;;5030391;28;20794;-83
2022/07/11 07:54:41;;;;;;;8.45;2.58;;;21.40;99.90;;;;;;5031056;28;20593;-83
2022/07/11 07:57:07;;;;;;;9.98;2.47;;;21.50;99.90;;;;;;5031247;28;20399;-80
2022/07/11 07:59:32;;;;;;;8.10;2.38;;;21.60;99.90;;;;;;5032374;28;21513;-82
2022/07/11 08:01:58;;;;;;;7.10;2.10;;;21.60;99.90;;;;;;5031534;28;20369;-83
2022/07/11 08:04:23;;;;;;;8.83;2.30;;;21.30;99.90;;;;;;5030192;28;20863;-83
2022/07/11 08:06:49;;;;;;;9.55;2.38;;;21.20;99.90;;;;;;5029465;28;20389;-83
2022/07/11 08:09:15;;;;;;;6.57;2.23;;;21.30;99.90;;;;;;5031869;28;20826;-82
2022/07/11 08:11:40;;;;;;;5.80;2.20;;;21.40;99.90;;;;;;5029741;28;20419;-82
2022/07/11 08:14:07;;;;;;;5.87;2.23;;;21.60;99.90;;;;;;5019609;28;20398;-83
2022/07/11 08:16:33;;;;;;;6.10;2.00;;;21.40;99.90;;;;;;5027310;28;20412;-84
2022/07/11 08:19:00;;;;;;;8.00;2.00;;;21.50;99.90;;;;;;5031393;28;20377;-84
2022/07/11 08:21:27;;;;;;;6.80;2.42;;;21.40;99.90;;;;;;5026369;28;20421;-82
2022/07/11 08:23:52;;;;;;;10.00;2.60;;;21.10;99.90;;;;;;5021185;28;20439;-83
2022/07/11 08:26:18;;;;;;;7.37;2.07;;;20.90;99.90;;;;;;5019866;28;20480;-83
2022/07/11 08:28:44;;;;;;;7.40;2.00;;;20.70;99.90;;;;;;5023623;28;20401;-82
2022/07/11 08:31:09;;;;;;;6.20;2.03;;;20.80;99.90;;;;;;5023103;28;20797;-83
2022/07/11 08:33:37;;;;;;;6.07;1.90;;;21.00;99.90;;;;;;5022415;28;20447;-81
2022/07/11 08:36:03;;;;;;;8.52;2.40;;;21.30;99.90;;;;;;5024209;28;20419;-84
2022/07/11 08:38:28;;;;;;;8.73;2.25;;;21.60;99.90;;;;;;5023944;28;20782;-83
2022/07/11 08:40:55;;;;;;;5.77;2.13;;;21.80;99.90;;;;;;5024246;28;20389;-82
2022/07/11 08:43:29;;;;;;;7.10;2.25;;;21.50;99.90;;;;;;5022738;28;20444;-83
2022/07/11 08:45:59;;;;;;;8.63;2.10;;;21.30;99.90;;;;;;5021623;28;20419;-82
2022/07/11 08:48:25;;;;;;;8.68;2.38;;;21.50;99.90;;;;;;5016892;28;20390;-84
2022/07/11 08:50:52;;;;;;;6.57;2.08;;;21.80;99.90;;;;;;5024442;28;20402;-83
2022/07/11 08:53:20;;;;;;;6.70;1.70;;;21.90;99.90;;;;;;5019089;28;20381;-82
2022/07/11 08:55:47;;;;;;;6.53;2.08;;;22.10;99.90;;;;;;5020113;28;20416;-84
2022/07/11 08:58:13;;;;;;;8.70;2.17;;;22.00;99.90;;;;;;5015044;28;20474;-82
2022/07/11 09:00:42;;;;;;;7.30;2.08;;;22.10;99.90;;;;;;5020254;28;20381;-83
2022/07/11 09:03:13;;;;;;;6.32;2.00;;;22.30;99.90;;;;;;5022218;28;20410;-82
2022/07/11 09:05:45;;;;;;;7.40;1.98;;;22.20;99.90;;;;;;5021823;28;20466;-82
2022/07/11 09:08:11;;;;;;;5.75;2.22;;;22.40;99.90;;;;;;5016178;28;20387;-83
2022/07/11 09:10:43;;;;;;;5.13;1.70;;;22.60;99.90;;;;;;5013895;28;20379;-82
2022/07/11 09:13:15;;;;;;;6.10;2.03;;;22.70;99.90;;;;;;5024265;28;20391;-82
2022/07/11 09:15:47;;;;;;;6.18;2.20;;;22.50;99.90;;;;;;5022129;28;20424;-80
2022/07/11 09:18:26;;;;;;;5.43;1.92;;;22.00;99.90;;;;;;5021600;28;20502;-83
2022/07/11 09:26:36;;;;;;;5.38;1.83;;;22.50;99.90;;;;;;5019519;28;20410;-81
2022/07/11 09:29:20;;;;;;;7.65;2.13;;;22.40;99.90;;;;;;5026036;28;20448;-80
2022/07/11 09:31:50;;;;;;;7.73;2.20;;;;;;;;;;5023589;28;20379;-83
2022/07/11 09:34:20;;;;;;;6.50;2.03;;;22.40;99.90;;;;;;5022754;28;20389;-84
2022/07/11 09:36:54;;;;;;;5.40;1.83;;;22.60;99.90;;;;;;5018539;28;20410;-81
2022/07/11 09:39:22;;;;;;;7.50;2.00;;;22.70;99.90;;;;;;5012225;28;20969;-84
2022/07/11 09:41:51;;;;;;;6.43;2.15;;;22.80;99.90;;;;;;5017934;28;20385;-83
2022/07/11 09:44:18;;;;;;;6.60;2.10;;;23.00;99.90;;;;;;5019288;28;20809;-83
2022/07/11 09:46:47;;;;;;;6.45;2.15;;;23.40;99.90;;;;;;5020035;28;20394;-84
2022/07/11 09:49:14;;;;;;;5.20;1.70;;;23.70;99.90;;;;;;5018832;28;20401;-85
2022/07/11 09:51:40;;;;;;;7.63;1.70;;;23.60;99.90;;;;;;5016637;28;20453;-83
2022/07/11 09:54:08;;;;;;;5.18;1.63;;;23.40;99.90;;;;;;5019743;28;20450;-84
2022/07/11 09:56:39;;;;;;;6.40;2.13;;;23.50;99.90;;;;;;5022491;28;20884;-83
2022/07/11 09:59:06;;;;;;;6.35;2.17;;;24.00;99.90;;;;;;5023542;28;20397;-82
2022/07/11 10:01:33;;;;;;;5.25;2.00;;;24.00;99.50;;;;;;5020509;28;20407;-82
2022/07/11 10:03:59;;;;;;;4.40;1.73;;;23.60;99.80;;;;;;5018859;28;20521;-83
2022/07/11 10:06:26;;;;;;;6.50;1.73;;;22.70;99.30;;;;;;5023820;28;20383;-82
2022/07/11 10:08:53;;;;;;;4.35;1.67;;;22.60;98.90;;;;;;5021415;28;20422;-82
2022/07/11 10:11:22;;;;;;;3.40;1.47;;;22.90;99.90;;;;;;5023919;28;20387;-81
2022/07/11 10:13:49;;;;;;;5.55;1.80;;;23.10;99.90;;;;;;5022190;28;20414;-83
2022/07/11 10:16:45;;;;;;;4.97;1.52;;;23.00;98.90;;;;;;5023026;28;20418;-84
2022/07/11 10:19:14;;;;;;;6.88;1.77;;;22.60;99.30;;;;;;5023020;28;20392;-84
2022/07/11 10:22:03;;;;;;;5.13;1.80;;;22.20;99.90;;;;;;5024340;28;20377;-83
2022/07/11 10:24:38;;;;;;;6.13;1.63;;;21.90;99.00;;;;;;5018550;28;20395;-83
2022/07/11 10:27:24;;;;;;;4.18;1.40;;;22.40;99.20;;;;;;5017252;28;20383;-81
2022/07/11 10:29:53;;;;;;;4.55;1.30;;;22.40;99.60;;;;;;5014981;28;20414;-83
2022/07/11 10:32:19;;;;;;;6.33;1.50;;;22.10;99.90;;;;;;5013976;28;20383;-82
2022/07/11 10:34:47;;;;;;;3.70;1.50;;;21.90;99.80;;;;;;5023581;28;20909;-83
2022/07/11 10:37:13;;;;;;;3.63;1.40;;;22.00;99.90;;;;;;5026294;28;20447;-83
2022/07/11 10:40:00;;;;;;;6.55;1.50;;;22.40;99.90;;;;;;5021507;28;20385;-83
2022/07/11 10:42:39;;;;;;;3.85;1.50;;;22.60;99.50;;;;;;5023606;28;20459;-81
2022/07/11 10:45:10;;;;;;;4.63;1.83;;;22.80;98.30;;;;;;5025878;28;20418;-83
2022/07/11 10:47:43;;;;;;;4.53;1.42;;;22.50;99.10;;;;;;5023798;28;20397;-82
2022/07/11 10:50:22;;;;;;;4.22;1.40;;;22.10;99.40;;;;;;5020850;28;20728;-82
2022/07/11 10:53:03;;;;;;;3.50;1.15;;;21.90;99.40;;;;;;5025393;28;20383;-82
2022/07/11 10:55:40;;;;;;;3.47;1.20;;;22.00;99.10;;;;;;5023858;28;20896;-83
2022/07/11 10:58:22;;;;;;;4.93;1.50;;;22.50;99.40;;;;;;5024591;28;20389;-85
2022/07/11 11:01:11;;;;;;;3.67;1.30;;;22.90;99.30;;;;;;5020491;28;20423;-84
2022/07/11 11:03:38;;;;;;;3.70;1.38;;;23.00;98.40;;;;;;5020776;28;20879;-82
2022/07/11 11:06:04;;;;;;;3.78;1.40;;;22.50;98.30;;;;;;5029356;28;20385;-82
2022/07/11 11:08:35;;;;;;;3.92;1.20;;;22.20;99.60;;;;;;5024939;28;20392;-83
2022/07/11 11:11:04;;;;;;;5.10;1.80;;;22.40;97.40;;;;;;5025650;28;20407;-83
2022/07/11 11:13:30;;;;;;;3.08;1.45;;;22.40;97.40;;;;;;5026009;28;20465;-84
2022/07/11 11:16:00;;;;;;;3.43;1.23;;;22.40;98.80;;;;;;5019499;28;20410;-83
2022/07/11 11:18:25;;;;;;;4.57;1.55;;;22.70;96.00;;;;;;5025849;28;20383;-83
2022/07/11 11:21:04;;;;;;;2.20;1.20;;;22.90;96.40;;;;;;5012916;28;20469;-83
2022/07/11 11:23:35;;;;;;;3.30;1.10;;;23.10;97.50;;;;;;5030948;28;20485;-83
2022/07/11 11:26:06;;;;;;;2.42;1.02;;;23.30;97.00;;;;;;5019993;28;20386;-84
2022/07/11 11:28:32;;;;;;;8.70;1.60;;;23.60;97.30;;;;;;5019515;28;20466;-84
2022/07/11 11:31:01;;;;;;;2.97;1.10;;;23.80;95.90;;;;;;5012550;28;20449;-83
2022/07/11 11:33:32;;;;;;;6.63;1.42;;;24.10;96.20;;;;;;5025424;28;20403;-83
2022/07/11 11:36:07;;;;;;;2.95;1.20;;;24.40;95.20;;;;;;5024259;28;20419;-83
2022/07/11 11:38:35;;;;;;;3.78;1.23;;;24.40;95.20;;;;;;5024888;28;20401;-81
2022/07/11 11:41:01;;;;;;;3.42;1.10;;;24.10;94.90;;;;;;5029918;28;20800;-83
2022/07/11 11:43:28;;;;;;;4.40;1.23;;;24.10;95.90;;;;;;5020413;28;20464;-84
2022/07/11 11:45:54;;;;;;;4.25;1.10;;;23.80;93.10;;;;;;5013441;28;20402;-83
2022/07/11 11:48:34;;;;;;;5.32;1.58;;;23.70;95.70;;;;;;5015299;28;20424;-82
2022/07/11 11:51:04;;;;;;;4.13;1.20;;;23.80;95.80;;;;;;5013553;28;20923;-81
2022/07/11 11:53:36;;;;;;;2.70;1.02;;;;;;;;;;5032721;28;20373;-83
2022/07/11 11:56:29;;;;;;;5.28;1.27;;;23.60;99.90;;;;;;5033020;28;20836;-82
2022/07/11 11:59:15;;;;;;;4.18;1.30;;;23.20;93.80;;;;;;5030109;28;20397;-83
2022/07/11 12:01:46;;;;;;;3.33;1.20;;;23.40;96.10;;;;;;5030462;28;20880;-82
2022/07/11 12:04:14;;;;;;;2.80;1.30;;;23.70;96.80;;;;;;5030969;28;20474;-82
2022/07/11 12:06:46;;;;;;;3.15;1.33;;;24.00;95.80;;;;;;5031904;28;20523;-82
2022/07/11 12:09:15;;;;;;;3.07;1.20;;;23.90;93.40;;;;;;5029916;28;20446;-82
2022/07/11 12:11:44;;;;;;;2.43;1.30;;;23.60;94.60;;;;;;5030762;28;20397;-82
2022/07/11 12:14:12;;;;;;;1.93;0.93;;;23.70;95.90;;;;;;5030420;28;21274;-82
2022/07/11 12:16:43;;;;;;;3.83;1.05;;;23.90;94.10;;;;;;5030870;28;20417;-83
2022/07/11 12:19:21;;;;;;;2.50;1.10;;;23.80;94.60;;;;;;5026161;28;20399;-82
2022/07/11 12:21:49;;;;;;;2.95;1.00;;;23.60;94.10;;;;;;5016119;28;20939;-84
2022/07/11 12:24:28;;;;;;;2.60;1.20;;;23.60;93.70;;;;;;5013251;28;20393;-83
2022/07/11 12:26:54;;;;;;;1.92;1.13;;;23.40;94.30;;;;;;5022503;28;20388;-83
2022/07/11 12:29:27;;;;;;;2.30;1.10;;;23.40;95.40;;;;;;5018566;28;20418;-83
2022/07/11 12:31:59;;;;;;;2.08;0.90;;;23.50;93.10;;;;;;5028851;28;20404;-82
2022/07/11 12:34:31;;;;;;;2.55;1.00;;;23.50;92.30;;;;;;5025158;28;20881;-82
2022/07/11 12:37:03;;;;;;;5.30;1.63;;;23.40;93.10;;;;;;5013501;28;20414;-83
2022/07/11 12:39:31;;;;;;;3.40;1.25;;;23.50;95.00;;;;;;5022396;28;20381;-82
2022/07/11 12:41:58;;;;;;;4.22;1.00;;;23.80;93.50;;;;;;5032171;28;20389;-82
2022/07/11 12:47:24;;;;;;;4.13;1.20;;;23.90;93.30;;;;;;5026006;28;20493;-83
2022/07/11 12:49:50;;;;;;;3.25;1.25;;;23.90;93.20;;;;;;5029813;28;20760;-83
2022/07/11 12:52:17;;;;;;;1.83;1.00;;;24.00;94.40;;;;;;5029228;28;20764;-84
2022/07/11 12:54:43;;;;;;;2.10;1.17;;;24.20;92.50;;;;;;5030557;28;20398;-83
2022/07/11 12:57:10;;;;;;;2.30;1.00;;;;;;;;;;5030395;28;20382;-81
2022/07/11 12:59:39;;;;;;;4.03;1.10;;;;;;;;;;5031253;28;20733;-83